Time;durP1;ratioP1;P1;durP2;ratioP2;P2;SDS_P1;SDS_P2;PMS_P1;PMS_P2;Temp;Humidity;BMP_temperature;BMP_pressure;BME280_temperature;BME280_humidity;BME280_pressure;Samples;Min_cycle;Max_cycle;Signal;HPM_P1;HPM_P2
2021/07/25 00:01:14;;;;;;;;;;;12.00;85.60;;;;;;5075069;28;19917;-66
2021/07/25 00:03:41;;;;;;;;;;;12.00;85.60;;;;;;5074922;28;19931;-66
2021/07/25 00:06:07;;;;;;;;;;;12.00;84.20;;;;;;5075340;28;19962;-67
2021/07/25 00:08:34;;;;;;;;;;;12.00;84.00;;;;;;5075005;28;19908;-66
2021/07/25 00:11:01;;;;;;;;;;;12.10;85.70;;;;;;5074426;28;19908;-67
2021/07/25 00:13:27;;;;;;;;;;;12.20;83.10;;;;;;5094690;28;19908;-67
2021/07/25 00:15:54;;;;;;;;;;;12.20;83.90;;;;;;5093319;28;19908;-66
2021/07/25 00:18:21;;;;;;;;;;;12.30;82.90;;;;;;5095196;28;20413;-68
2021/07/25 00:20:47;;;;;;;;;;;12.20;81.40;;;;;;5095162;28;19923;-67
2021/07/25 00:23:18;;;;;;;;;;;12.10;81.80;;;;;;5094722;28;20370;-64
2021/07/25 00:25:46;;;;;;;;;;;12.20;83.80;;;;;;5094670;28;20003;-65
2021/07/25 00:28:17;;;;;;;;;;;12.20;82.50;;;;;;5094994;28;19912;-67
2021/07/25 00:30:43;;;;;;;;;;;12.20;81.30;;;;;;5094172;28;19908;-65
2021/07/25 00:33:10;;;;;;;;;;;12.10;81.60;;;;;;5094845;28;19953;-68
2021/07/25 00:35:37;;;;;;;;;;;12.10;81.10;;;;;;5094354;28;19909;-65
2021/07/25 00:38:03;;;;;;;;;;;12.20;80.60;;;;;;5094647;28;19915;-65
2021/07/25 00:40:36;;;;;;;;;;;12.20;80.40;;;;;;5094633;28;19916;-65
2021/07/25 00:43:04;;;;;;;;;;;12.30;79.00;;;;;;5094518;28;19912;-66
2021/07/25 00:45:31;;;;;;;;;;;12.50;79.30;;;;;;5093953;28;20005;-65
2021/07/25 00:47:58;;;;;;;;;;;12.50;78.50;;;;;;5093918;28;20279;-65
2021/07/25 00:50:24;;;;;;;;;;;12.40;78.00;;;;;;5094419;28;19966;-67
2021/07/25 00:52:52;;;;;;;;;;;12.60;76.10;;;;;;5094562;28;19908;-67
2021/07/25 00:55:19;;;;;;;;;;;12.60;75.80;;;;;;5094362;28;20106;-67
2021/07/25 00:57:46;;;;;;;;;;;12.50;76.30;;;;;;5094242;28;19930;-65
2021/07/25 01:00:13;;;;;;;;;;;12.60;76.00;;;;;;5093721;28;20007;-65
2021/07/25 01:03:03;;;;;;;;;;;12.70;78.00;;;;;;5094225;28;20259;-66
2021/07/25 01:05:42;;;;;;;;;;;12.70;73.90;;;;;;5091200;28;20290;-67
2021/07/25 01:08:12;;;;;;;;;;;12.80;75.70;;;;;;5094020;28;20017;-66
2021/07/25 01:10:40;;;;;;;;;;;13.00;74.20;;;;;;5094095;28;19958;-67
2021/07/25 01:13:13;;;;;;;;;;;13.20;69.00;;;;;;5094232;28;19999;-65
2021/07/25 01:15:41;;;;;;;;;;;13.60;70.20;;;;;;5093623;28;19908;-66
2021/07/25 01:18:07;;;;;;;;;;;13.50;67.90;;;;;;5094403;28;19908;-66
2021/07/25 01:20:34;;;;;;;;;;;14.00;69.20;;;;;;5093861;28;19969;-65
2021/07/25 01:23:01;;;;;;;;;;;14.20;68.30;;;;;;5093696;28;19914;-65
2021/07/25 01:25:28;;;;;;;;;;;14.40;67.00;;;;;;5093682;28;19908;-65
2021/07/25 01:27:54;;;;;;;;;;;14.40;68.60;;;;;;5093747;28;19931;-65
2021/07/25 01:30:23;;;;;;;;;;;14.40;65.90;;;;;;5093122;28;19909;-65
2021/07/25 01:32:55;;;;;;;;;;;14.00;66.20;;;;;;5093638;28;19920;-64
2021/07/25 01:35:22;;;;;;;;;;;13.80;65.50;;;;;;5093705;28;20350;-64
2021/07/25 01:37:48;;;;;;;;;;;13.70;66.20;;;;;;5093292;28;20117;-64
2021/07/25 01:40:17;;;;;;;;;;;13.50;66.40;;;;;;5093370;28;19959;-64
2021/07/25 01:42:44;;;;;;;;;;;13.50;66.90;;;;;;5093497;28;19909;-64
2021/07/25 01:45:11;;;;;;;;;;;13.50;65.70;;;;;;5092879;28;20332;-65
2021/07/25 01:47:38;;;;;;;;;;;13.50;65.80;;;;;;5093163;28;19908;-66
2021/07/25 01:50:05;;;;;;;;;;;13.40;66.80;;;;;;5093378;28;19912;-68
2021/07/25 01:52:32;;;;;;;;;;;13.30;66.50;;;;;;5093349;28;19999;-67
2021/07/25 01:54:59;;;;;;;;;;;13.30;67.20;;;;;;5093180;28;19916;-66
2021/07/25 01:57:26;;;;;;;;;;;13.20;67.10;;;;;;5093478;28;19995;-67
2021/07/25 01:59:52;;;;;;;;;;;13.10;67.20;;;;;;5091840;28;19916;-67
2021/07/25 02:02:19;;;;;;;;;;;13.20;68.40;;;;;;5093242;28;20014;-68
2021/07/25 02:04:46;;;;;;;;;;;13.20;67.70;;;;;;5093368;28;19908;-66
2021/07/25 02:07:12;;;;;;;;;;;13.30;67.60;;;;;;5093249;28;20397;-67
2021/07/25 02:09:39;;;;;;;;;;;13.20;67.90;;;;;;5092853;28;20337;-65
2021/07/25 02:12:08;;;;;;;;;;;13.30;68.90;;;;;;5093283;28;19909;-65
2021/07/25 02:14:36;;;;;;;;;;;13.30;67.00;;;;;;5092754;28;19931;-66
2021/07/25 02:17:03;;;;;;;;;;;13.20;69.10;;;;;;5093055;28;19913;-66
2021/07/25 02:19:30;;;;;;;;;;;13.20;68.30;;;;;;5092695;28;19965;-66
2021/07/25 02:21:57;;;;;;;;;;;13.20;68.50;;;;;;5092582;28;19973;-67
2021/07/25 02:24:25;;;;;;;;;;;13.20;67.90;;;;;;5092724;28;19912;-65
2021/07/25 02:26:52;;;;;;;;;;;13.30;69.90;;;;;;5092823;28;19915;-65
2021/07/25 02:29:19;;;;;;;;;;;13.40;67.40;;;;;;5092185;28;19912;-65
2021/07/25 02:31:46;;;;;;;;;;;13.50;68.80;;;;;;5092471;28;19912;-64
2021/07/25 02:34:13;;;;;;;;;;;13.50;68.00;;;;;;5092677;28;20883;-65
2021/07/25 02:36:39;;;;;;;;;;;13.50;65.60;;;;;;5092271;28;19927;-65
2021/07/25 02:39:06;;;;;;;;;;;13.50;67.60;;;;;;5092398;28;19908;-65
2021/07/25 02:41:33;;;;;;;;;;;13.50;66.10;;;;;;5092392;28;19947;-68
2021/07/25 02:44:00;;;;;;;;;;;13.60;65.50;;;;;;5091887;28;20434;-65
2021/07/25 02:46:26;;;;;;;;;;;13.70;66.30;;;;;;5092581;28;19954;-67
2021/07/25 02:48:53;;;;;;;;;;;13.80;65.90;;;;;;5092731;28;19920;-65
2021/07/25 02:51:21;;;;;;;;;;;13.80;66.00;;;;;;5094234;28;19919;-65
2021/07/25 02:53:47;;;;;;;;;;;14.00;67.00;;;;;;5092035;28;19990;-66
2021/07/25 02:56:14;;;;;;;;;;;14.10;65.70;;;;;;5088703;28;19912;-65
2021/07/25 02:58:41;;;;;;;;;;;14.00;65.00;;;;;;5091688;28;19915;-68
2021/07/25 03:01:11;;;;;;;;;;;13.90;64.90;;;;;;5092221;28;19916;-68
2021/07/25 03:03:38;;;;;;;;;;;14.20;65.80;;;;;;5092161;28;19916;-65
2021/07/25 03:06:05;;;;;;;;;;;14.30;63.20;;;;;;5092230;28;19915;-67
2021/07/25 03:08:31;;;;;;;;;;;14.20;64.80;;;;;;5091924;28;19908;-68
2021/07/25 03:10:58;;;;;;;;;;;14.00;63.80;;;;;;5094469;28;20385;-68
2021/07/25 03:13:26;;;;;;;;;;;14.20;65.20;;;;;;5096172;28;19908;-67
2021/07/25 03:15:53;;;;;;;;;;;14.20;63.50;;;;;;5096000;28;19908;-66
2021/07/25 03:18:20;;;;;;;;;;;14.10;63.40;;;;;;5096257;28;19918;-67
2021/07/25 03:20:46;;;;;;;;;;;14.10;63.80;;;;;;5095238;28;20308;-65
2021/07/25 03:23:13;;;;;;;;;;;14.10;62.80;;;;;;5096046;28;19908;-65
2021/07/25 03:25:39;;;;;;;;;;;14.00;63.70;;;;;;5094626;28;20007;-65
2021/07/25 03:28:06;;;;;;;;;;;14.00;62.60;;;;;;5095854;28;19908;-67
2021/07/25 03:30:33;;;;;;;;;;;14.00;62.90;;;;;;5095594;28;20420;-67
2021/07/25 03:32:59;;;;;;;;;;;14.00;63.10;;;;;;5096107;28;20332;-67
2021/07/25 03:35:26;;;;;;;;;;;14.00;62.30;;;;;;5095925;28;19958;-67
2021/07/25 03:37:53;;;;;;;;;;;13.90;62.30;;;;;;5095686;28;19908;-64
2021/07/25 03:40:24;;;;;;;;;;;13.90;62.70;;;;;;5095866;28;19920;-66
2021/07/25 03:42:51;;;;;;;;;;;14.00;63.30;;;;;;5095649;28;19930;-65
2021/07/25 03:45:18;;;;;;;;;;;14.00;63.40;;;;;;5095211;28;20014;-65
2021/07/25 03:47:44;;;;;;;;;;;14.00;62.70;;;;;;5095581;28;20003;-66
2021/07/25 03:50:11;;;;;;;;;;;14.00;63.00;;;;;;5095677;28;19908;-66
2021/07/25 03:52:38;;;;;;;;;;;14.00;62.80;;;;;;5095522;28;19908;-65
2021/07/25 03:55:05;;;;;;;;;;;14.00;62.60;;;;;;5095669;28;19919;-66
2021/07/25 03:57:35;;;;;;;;;;;14.10;62.90;;;;;;5095437;28;20026;-65
2021/07/25 04:00:03;;;;;;;;;;;14.10;63.00;;;;;;5094805;28;20347;-65
2021/07/25 04:02:29;;;;;;;;;;;14.10;62.50;;;;;;5095456;28;19908;-65
2021/07/25 04:04:56;;;;;;;;;;;14.10;61.70;;;;;;5095313;28;20385;-66
2021/07/25 04:07:23;;;;;;;;;;;14.00;61.80;;;;;;5095154;28;19914;-65
2021/07/25 04:09:50;;;;;;;;;;;13.90;61.60;;;;;;5095003;28;19908;-65
2021/07/25 04:12:16;;;;;;;;;;;14.00;60.60;;;;;;5095216;28;19988;-65
2021/07/25 04:14:43;;;;;;;;;;;14.00;61.70;;;;;;5094736;28;19912;-66
2021/07/25 04:17:10;;;;;;;;;;;13.90;61.10;;;;;;5095328;28;19908;-66
2021/07/25 04:19:36;;;;;;;;;;;13.90;61.10;;;;;;5094756;28;20003;-67
2021/07/25 04:22:03;;;;;;;;;;;13.90;60.10;;;;;;5093827;28;19908;-66
2021/07/25 04:24:30;;;;;;;;;;;14.00;60.50;;;;;;5094939;28;19908;-67
2021/07/25 04:26:57;;;;;;;;;;;14.00;62.60;;;;;;5094839;28;19913;-65
2021/07/25 04:29:23;;;;;;;;;;;14.00;60.80;;;;;;5094466;28;19952;-64
2021/07/25 04:31:50;;;;;;;;;;;14.00;61.40;;;;;;5094945;28;19919;-64
2021/07/25 04:34:17;;;;;;;;;;;14.00;63.30;;;;;;5095068;28;19908;-64
2021/07/25 04:36:44;;;;;;;;;;;14.10;62.60;;;;;;5094811;28;19908;-64
2021/07/25 04:39:11;;;;;;;;;;;14.00;63.70;;;;;;5094801;28;19990;-65
2021/07/25 04:41:41;;;;;;;;;;;14.00;62.10;;;;;;5094382;28;19992;-65
2021/07/25 04:44:30;;;;;;;;;;;14.10;61.80;;;;;;5093786;28;19927;-65
2021/07/25 04:47:02;;;;;;;;;;;14.10;62.00;;;;;;5090650;28;20259;-65
2021/07/25 04:49:41;;;;;;;;;;;14.20;63.00;;;;;;5094590;28;20309;-65
2021/07/25 04:52:11;;;;;;;;;;;14.20;62.30;;;;;;5094495;28;19920;-67
2021/07/25 04:54:39;;;;;;;;;;;14.20;63.10;;;;;;5094763;28;19915;-65
2021/07/25 04:57:06;;;;;;;;;;;14.20;64.10;;;;;;5094571;28;20326;-67
2021/07/25 04:59:54;;;;;;;;;;;14.10;63.40;;;;;;5093880;28;20487;-66
2021/07/25 05:02:24;;;;;;;;;;;14.10;61.80;;;;;;5094452;28;19999;-66
2021/07/25 05:04:51;;;;;;;;;;;14.00;62.30;;;;;;5094260;28;19964;-65
2021/07/25 05:07:18;;;;;;;;;;;13.90;62.50;;;;;;5094338;28;20255;-64
2021/07/25 05:09:45;;;;;;;;;;;13.90;62.60;;;;;;5094093;28;20281;-65
2021/07/25 05:12:34;;;;;;;;;;;13.90;62.70;;;;;;5093802;28;19991;-67
2021/07/25 05:15:05;;;;;;;;;;;13.80;61.80;;;;;;5073588;28;19908;-65
2021/07/25 05:17:41;;;;;;;;;;;13.70;62.40;;;;;;5093491;28;19998;-65
2021/07/25 05:20:17;;;;;;;;;;;13.70;62.80;;;;;;5093639;28;19960;-65
2021/07/25 05:22:55;;;;;;;;;;;13.70;62.30;;;;;;5093695;28;19908;-65
2021/07/25 05:25:23;;;;;;;;;;;13.70;63.20;;;;;;5093934;28;19916;-65
2021/07/25 05:27:52;;;;;;;;;;;13.80;61.90;;;;;;5093180;28;19915;-67
2021/07/25 05:30:20;;;;;;;;;;;13.70;62.10;;;;;;5093954;28;19908;-68
2021/07/25 05:32:46;;;;;;;;;;;13.70;62.50;;;;;;5093522;28;19951;-69
2021/07/25 05:35:13;;;;;;;;;;;13.60;64.90;;;;;;5093533;28;19969;-70
2021/07/25 05:37:41;;;;;;;;;;;13.60;63.40;;;;;;5093261;28;19930;-69
2021/07/25 05:40:08;;;;;;;;;;;13.60;64.10;;;;;;5093301;28;19912;-66
2021/07/25 05:42:35;;;;;;;;;;;13.60;64.70;;;;;;5093014;28;19916;-69
2021/07/25 05:45:02;;;;;;;;;;;13.60;68.00;;;;;;5093172;28;19943;-68
2021/07/25 05:47:29;;;;;;;;;;;13.60;66.20;;;;;;5093428;28;20315;-67
2021/07/25 05:49:56;;;;;;;;;;;13.60;66.90;;;;;;5093942;28;19931;-67
2021/07/25 05:52:22;;;;;;;;;;;13.50;68.50;;;;;;5093414;28;19908;-67
2021/07/25 05:54:49;;;;;;;;;;;13.50;70.30;;;;;;5093445;28;19960;-69
2021/07/25 05:57:16;;;;;;;;;;;13.50;71.70;;;;;;5125436;27;20007;-77
2021/07/25 05:59:42;;;;;;;;;;;13.50;67.80;;;;;;5092794;28;19916;-71
2021/07/25 06:02:09;;;;;;;;;;;13.40;66.10;;;;;;5093323;28;19918;-69
2021/07/25 06:04:35;;;;;;;;;;;13.40;66.80;;;;;;5092992;28;20476;-70
2021/07/25 06:07:02;;;;;;;;;;;13.40;66.50;;;;;;5093208;28;20347;-69
2021/07/25 06:09:29;;;;;;;;;;;13.40;67.80;;;;;;5093364;28;19999;-70
2021/07/25 06:11:57;;;;;;;;;;;13.30;66.80;;;;;;5085340;28;20003;-68
2021/07/25 06:14:23;;;;;;;;;;;13.30;65.80;;;;;;5072628;28;19908;-69
2021/07/25 06:16:50;;;;;;;;;;;13.30;67.70;;;;;;5072703;28;19908;-66
2021/07/25 06:19:16;;;;;;;;;;;13.30;65.10;;;;;;5072376;28;19940;-64
2021/07/25 06:21:43;;;;;;;;;;;13.30;68.00;;;;;;5072101;28;20295;-65
2021/07/25 06:24:10;;;;;;;;;;;13.20;68.50;;;;;;5072621;28;19916;-65
2021/07/25 06:26:36;;;;;;;;;;;13.20;67.00;;;;;;5072078;28;19908;-64
2021/07/25 06:29:03;;;;;;;;;;;13.20;67.50;;;;;;5072554;28;19913;-65
2021/07/25 06:31:30;;;;;;;;;;;13.20;67.90;;;;;;5072572;28;19916;-64
2021/07/25 06:33:56;;;;;;;;;;;13.10;68.40;;;;;;5072329;28;19915;-65
2021/07/25 06:36:24;;;;;;;;;;;13.10;66.80;;;;;;5072038;28;20031;-66
2021/07/25 06:38:51;;;;;;;;;;;13.10;67.50;;;;;;5072139;28;20288;-64
2021/07/25 06:41:17;;;;;;;;;;;13.00;68.90;;;;;;5071830;28;19948;-64
2021/07/25 06:43:44;;;;;;;;;;;13.10;69.40;;;;;;5072047;28;19920;-66
2021/07/25 06:46:11;;;;;;;;;;;13.00;69.30;;;;;;5071933;28;19909;-67
2021/07/25 06:48:37;;;;;;;;;;;12.90;69.00;;;;;;5072111;28;19916;-64
2021/07/25 06:51:04;;;;;;;;;;;12.90;67.70;;;;;;5072156;28;19960;-67
2021/07/25 06:53:31;;;;;;;;;;;12.90;69.20;;;;;;5071925;28;19966;-65
2021/07/25 06:56:01;;;;;;;;;;;12.80;68.00;;;;;;5071649;28;19920;-65
2021/07/25 06:58:27;;;;;;;;;;;12.80;67.40;;;;;;5072002;28;19983;-67
2021/07/25 07:00:54;;;;;;;;;;;12.70;69.60;;;;;;5072063;28;19917;-66
2021/07/25 07:03:21;;;;;;;;;;;12.70;68.90;;;;;;5071875;28;19908;-65
2021/07/25 07:05:48;;;;;;;;;;;12.60;67.60;;;;;;5071811;28;19908;-64
2021/07/25 07:08:14;;;;;;;;;;;12.60;68.70;;;;;;5071957;28;19908;-65
2021/07/25 07:10:42;;;;;;;;;;;12.60;70.30;;;;;;5070137;28;20003;-66
2021/07/25 07:13:10;;;;;;;;;;;12.60;70.20;;;;;;5072243;28;19916;-64
2021/07/25 07:15:38;;;;;;;;;;;12.60;70.40;;;;;;5071743;28;20015;-65
2021/07/25 07:18:05;;;;;;;;;;;12.50;70.90;;;;;;5071979;28;19951;-65
2021/07/25 07:20:32;;;;;;;;;;;12.50;69.80;;;;;;5071786;28;19978;-65
2021/07/25 07:23:03;;;;;;;;;;;12.50;70.80;;;;;;5072019;28;20397;-65
2021/07/25 07:25:34;;;;;;;;;;;12.40;71.30;;;;;;5071426;28;20391;-65
2021/07/25 07:28:01;;;;;;;;;;;12.50;72.80;;;;;;5071713;28;19915;-64
2021/07/25 07:30:27;;;;;;;;;;;12.50;69.70;;;;;;5071842;28;19909;-66
2021/07/25 07:32:54;;;;;;;;;;;12.40;71.10;;;;;;5071872;28;19909;-65
2021/07/25 07:35:24;;;;;;;;;;;12.40;72.20;;;;;;5071612;28;19909;-65
2021/07/25 07:37:51;;;;;;;;;;;12.40;71.10;;;;;;5071525;28;19920;-64
2021/07/25 07:40:19;;;;;;;;;;;12.30;71.20;;;;;;5070997;28;19961;-64
2021/07/25 07:42:45;;;;;;;;;;;12.30;72.00;;;;;;5071883;28;19915;-64
2021/07/25 07:45:14;;;;;;;;;;;12.20;71.70;;;;;;5071979;28;19921;-65
2021/07/25 07:47:40;;;;;;;;;;;12.20;73.50;;;;;;5071829;28;19961;-64
2021/07/25 07:50:07;;;;;;;;;;;12.20;71.60;;;;;;5071525;28;20031;-65
2021/07/25 07:52:34;;;;;;;;;;;12.20;73.10;;;;;;5071785;28;19908;-65
2021/07/25 07:55:00;;;;;;;;;;;12.20;73.40;;;;;;5070949;28;19908;-66
2021/07/25 07:57:27;;;;;;;;;;;12.20;74.00;;;;;;5072911;28;19908;-65
2021/07/25 07:59:53;;;;;;;;;;;12.20;72.80;;;;;;5075122;28;19912;-64
2021/07/25 08:02:20;;;;;;;;;;;12.20;73.50;;;;;;5075290;28;19970;-64
2021/07/25 08:04:47;;;;;;;;;;;12.20;73.30;;;;;;5075360;28;20283;-66
2021/07/25 08:07:13;;;;;;;;;;;12.20;72.60;;;;;;5075249;28;19909;-66
2021/07/25 08:09:40;;;;;;;;;;;12.20;73.40;;;;;;5075100;28;19909;-65
2021/07/25 08:12:07;;;;;;;;;;;12.20;73.30;;;;;;5075150;28;20355;-64
2021/07/25 08:14:34;;;;;;;;;;;12.20;75.20;;;;;;5073760;28;19908;-63
2021/07/25 08:17:00;;;;;;;;;;;12.10;75.90;;;;;;5075124;28;20366;-64
2021/07/25 08:19:28;;;;;;;;;;;12.10;75.20;;;;;;5074732;28;20282;-64
2021/07/25 08:21:55;;;;;;;;;;;12.10;75.00;;;;;;5074733;28;19912;-66
2021/07/25 08:24:21;;;;;;;;;;;12.10;74.50;;;;;;5075084;28;19908;-64
2021/07/25 08:26:48;;;;;;;;;;;12.00;75.80;;;;;;5074924;28;19913;-64
2021/07/25 08:29:14;;;;;;;;;;;11.90;75.20;;;;;;5075015;28;19912;-64
2021/07/25 08:31:41;;;;;;;;;;;11.90;75.70;;;;;;5074682;28;19909;-64
2021/07/25 08:34:08;;;;;;;;;;;11.90;76.00;;;;;;5074731;28;19923;-63
2021/07/25 08:36:34;;;;;;;;;;;11.90;74.70;;;;;;5074736;28;19920;-65
2021/07/25 08:39:01;;;;;;;;;;;11.90;75.50;;;;;;5074739;28;19961;-66
2021/07/25 08:41:46;;;;;;;;;;;11.90;76.30;;;;;;5074611;28;20018;-65
2021/07/25 08:44:30;;;;;;;;;;;11.80;75.20;;;;;;5074528;28;19920;-64
2021/07/25 08:46:57;;;;;;;;;;;11.80;76.50;;;;;;5074815;28;20290;-65
2021/07/25 08:49:39;;;;;;;;;;;11.80;75.30;;;;;;5074505;28;19914;-65
2021/07/25 08:52:06;;;;;;;;;;;11.80;75.80;;;;;;5074611;28;19954;-64
2021/07/25 08:54:34;;;;;;;;;;;11.80;75.20;;;;;;5090043;28;19916;-65
2021/07/25 08:57:01;;;;;;;;;;;11.70;76.70;;;;;;5074440;28;19996;-65
2021/07/25 08:59:29;;;;;;;;;;;11.70;76.80;;;;;;5074446;28;19924;-65
2021/07/25 09:01:59;;;;;;;;;;;11.70;76.50;;;;;;5074401;28;20012;-64
2021/07/25 09:04:26;;;;;;;;;;;11.70;76.80;;;;;;5074176;28;19909;-65
2021/07/25 09:06:54;;;;;;;;;;;11.60;76.80;;;;;;5074199;28;19951;-64
2021/07/25 09:09:21;;;;;;;;;;;11.70;77.40;;;;;;5073614;28;20298;-64
2021/07/25 09:11:48;;;;;;;;;;;11.70;76.80;;;;;;5073972;28;19908;-65
2021/07/25 09:14:15;;;;;;;;;;;11.60;76.50;;;;;;5073976;28;20042;-65
2021/07/25 09:16:42;;;;;;;;;;;11.70;77.20;;;;;;5074262;28;19908;-64
2021/07/25 09:19:08;;;;;;;;;;;11.70;77.20;;;;;;5073878;28;19909;-64
2021/07/25 09:21:38;;;;;;;;;;;11.70;75.90;;;;;;5073616;28;20370;-65
2021/07/25 09:24:22;;;;;;;;;;;11.50;75.70;;;;;;5073951;28;20320;-64
2021/07/25 09:26:50;;;;;;;;;;;11.50;76.00;;;;;;5073938;28;19920;-64
2021/07/25 09:29:17;;;;;;;;;;;11.50;77.80;;;;;;5074048;28;20247;-64
2021/07/25 09:31:44;;;;;;;;;;;11.50;78.70;;;;;;5073701;28;19962;-64
2021/07/25 09:34:11;;;;;;;;;;;11.40;80.50;;;;;;5073893;28;19908;-65
2021/07/25 09:36:39;;;;;;;;;;;11.40;78.50;;;;;;5106212;28;19915;-64
2021/07/25 09:39:06;;;;;;;;;;;11.40;78.40;;;;;;5073746;28;19909;-66
2021/07/25 09:41:32;;;;;;;;;;;11.40;79.10;;;;;;5073369;28;19962;-63
2021/07/25 09:44:04;;;;;;;;;;;11.40;78.50;;;;;;5073325;28;19920;-63
2021/07/25 09:46:48;;;;;;;;;;;11.40;78.40;;;;;;5073468;28;20408;-64
2021/07/25 09:49:17;;;;;;;;;;;11.40;78.60;;;;;;5073264;28;19914;-63
2021/07/25 09:51:44;;;;;;;;;;;11.40;78.50;;;;;;5073200;28;19908;-63
2021/07/25 09:54:11;;;;;;;;;;;11.40;78.90;;;;;;5073365;28;19908;-65
2021/07/25 09:56:38;;;;;;;;;;;11.40;78.70;;;;;;5073523;28;19909;-62
2021/07/25 09:59:22;;;;;;;;;;;11.40;79.40;;;;;;5105742;28;19993;-63
2021/07/25 10:01:48;;;;;;;;;;;11.30;79.10;;;;;;5072973;28;19917;-64
2021/07/25 10:04:17;;;;;;;;;;;11.30;78.60;;;;;;5072902;28;19908;-66
2021/07/25 10:06:54;;;;;;;;;;;11.30;80.00;;;;;;5072861;28;19908;-67
2021/07/25 10:09:21;;;;;;;;;;;11.30;79.90;;;;;;5072988;28;19908;-65
2021/07/25 10:12:04;;;;;;;;;;;11.20;79.60;;;;;;5072555;28;19908;-65
2021/07/25 10:14:33;;;;;;;;;;;11.20;80.40;;;;;;5072908;28;19909;-66
2021/07/25 10:17:03;;;;;;;;;;;11.20;81.70;;;;;;5072590;28;19919;-66
2021/07/25 10:19:30;;;;;;;;;;;11.10;80.90;;;;;;5070337;28;19913;-65
2021/07/25 10:21:57;;;;;;;;;;;11.20;82.10;;;;;;5072623;28;20290;-66
2021/07/25 10:24:24;;;;;;;;;;;11.20;81.20;;;;;;5072789;28;19908;-65
2021/07/25 10:26:54;;;;;;;;;;;11.10;81.50;;;;;;5072701;28;19951;-65
2021/07/25 10:29:24;;;;;;;;;;;11.10;81.70;;;;;;5072633;28;20003;-66
2021/07/25 10:31:54;;;;;;;;;;;11.10;81.50;;;;;;5072237;28;20389;-67
2021/07/25 10:34:24;;;;;;;;;;;11.10;81.80;;;;;;5072428;28;19909;-65
2021/07/25 10:36:51;;;;;;;;;;;11.00;82.10;;;;;;5072585;28;19915;-67
2021/07/25 10:39:19;;;;;;;;;;;11.00;82.40;;;;;;5072491;28;19915;-65
2021/07/25 10:41:47;;;;;;;;;;;10.90;82.20;;;;;;5072486;28;19913;-66
2021/07/25 10:44:17;;;;;;;;;;;10.90;82.20;;;;;;5072517;28;19931;-66
2021/07/25 10:46:43;;;;;;;;;;;10.90;82.20;;;;;;5072490;28;19916;-65
2021/07/25 10:49:14;;;;;;;;;;;10.90;81.70;;;;;;5072236;28;19995;-65
2021/07/25 10:52:00;;;;;;;;;;;10.90;83.80;;;;;;5072052;28;19908;-65
2021/07/25 10:54:26;;;;;;;;;;;10.90;82.40;;;;;;5072316;28;19909;-68
2021/07/25 10:56:59;;;;;;;;;;;10.90;83.10;;;;;;5072404;28;19915;-67
2021/07/25 10:59:39;;;;;;;;;;;10.90;82.00;;;;;;5072205;28;19908;-66
2021/07/25 11:02:06;;;;;;;;;;;10.90;82.30;;;;;;5072284;28;19908;-68
2021/07/25 11:04:53;;;;;;;;;;;10.90;83.20;;;;;;5072144;28;20219;-67
2021/07/25 11:07:23;;;;;;;;;;;10.80;82.90;;;;;;5072439;28;19985;-67
2021/07/25 11:09:56;;;;;;;;;;;10.90;82.40;;;;;;5072068;28;19923;-68
2021/07/25 11:12:23;;;;;;;;;;;10.90;83.00;;;;;;5072248;28;19909;-68
2021/07/25 11:14:59;;;;;;;;;;;10.90;83.20;;;;;;5072286;28;20294;-67
2021/07/25 11:17:44;;;;;;;;;;;10.90;83.50;;;;;;5085733;28;19908;-68
2021/07/25 11:20:28;;;;;;;;;;;11.00;83.70;;;;;;5092247;28;20007;-65
2021/07/25 11:22:55;;;;;;;;;;;11.00;82.90;;;;;;5092207;28;19908;-66
2021/07/25 11:25:37;;;;;;;;;;;11.00;84.80;;;;;;5092275;28;19915;-68
2021/07/25 11:28:05;;;;;;;;;;;11.10;84.20;;;;;;5091702;28;19920;-68
2021/07/25 11:30:53;;;;;;;;;;;11.10;83.30;;;;;;5092126;28;20289;-66
2021/07/25 11:33:40;;;;;;;;;;;11.10;82.90;;;;;;5095959;28;19912;-68
2021/07/25 11:36:08;;;;;;;;;;;11.20;83.20;;;;;;5095920;28;19908;-69
2021/07/25 11:38:35;;;;;;;;;;;11.20;82.80;;;;;;5095997;28;19915;-67
2021/07/25 11:41:02;;;;;;;;;;;11.30;83.50;;;;;;5095900;28;20366;-68
2021/07/25 11:44:09;;;;;;;;;;;11.30;82.80;;;;;;5095042;28;20298;-68
2021/07/25 11:46:46;;;;;;;;;;;11.30;82.60;;;;;;5083391;28;19908;-67
2021/07/25 11:49:19;;;;;;;;;;;11.30;83.70;;;;;;5095673;28;19915;-67
2021/07/25 11:51:57;;;;;;;;;;;11.30;83.60;;;;;;5095590;28;19908;-67
2021/07/25 11:54:24;;;;;;;;;;;11.30;83.30;;;;;;5095746;28;19954;-68
2021/07/25 11:57:01;;;;;;;;;;;11.30;83.70;;;;;;5095696;28;20050;-68
2021/07/25 11:59:29;;;;;;;;;;;11.30;83.60;;;;;;5095401;28;20351;-67
2021/07/25 12:01:56;;;;;;;;;;;11.30;82.90;;;;;;5095697;28;19951;-68
2021/07/25 12:04:24;;;;;;;;;;;11.30;84.30;;;;;;5095694;28;19923;-68
2021/07/25 12:07:08;;;;;;;;;;;11.30;84.50;;;;;;5095689;28;20286;-67
2021/07/25 12:09:36;;;;;;;;;;;11.30;84.30;;;;;;5095397;28;19912;-67
2021/07/25 12:12:06;;;;;;;;;;;11.30;83.80;;;;;;5095721;28;19908;-67
2021/07/25 12:14:33;;;;;;;;;;;11.30;84.30;;;;;;5095166;28;19941;-66
2021/07/25 12:17:00;;;;;;;;;;;11.40;84.30;;;;;;5097112;28;19999;-68
2021/07/25 12:19:32;;;;;;;;;;;11.40;83.90;;;;;;5095561;28;20007;-65
2021/07/25 12:22:10;;;;;;;;;;;11.40;84.70;;;;;;5095510;28;19923;-67
2021/07/25 12:24:38;;;;;;;;;;;11.40;84.20;;;;;;5095211;28;20286;-67
2021/07/25 12:27:05;;;;;;;;;;;11.40;83.90;;;;;;5095304;28;20006;-67
2021/07/25 12:29:42;;;;;;;;;;;11.40;83.30;;;;;;5094527;28;19908;-67
2021/07/25 12:32:27;;;;;;;;;;;11.40;83.40;;;;;;5094909;28;20443;-68
2021/07/25 12:35:09;;;;;;;;;;;11.40;83.20;;;;;;5095000;28;20286;-68
2021/07/25 12:37:48;;;;;;;;;;;11.40;84.50;;;;;;5094936;28;19915;-68
2021/07/25 12:40:21;;;;;;;;;;;11.30;85.90;;;;;;5094877;28;19923;-65
2021/07/25 12:42:49;;;;;;;;;;;11.30;83.50;;;;;;5093109;28;20274;-67
2021/07/25 12:45:29;;;;;;;;;;;11.30;84.40;;;;;;5094713;28;19916;-67
2021/07/25 12:48:12;;;;;;;;;;;11.40;85.00;;;;;;5094573;28;19954;-67
2021/07/25 12:51:17;;;;;;;;;;;11.30;85.10;;;;;;5095407;28;20055;-68
2021/07/25 12:53:37;;;;;;;;;;;11.30;84.80;;;;;;5094229;28;19908;-68
2021/07/25 12:56:15;;;;;;;;;;;11.30;85.80;;;;;;5094665;28;19912;-68
2021/07/25 12:58:44;;;;;;;;;;;11.40;84.90;;;;;;5094043;28;19990;-68
2021/07/25 13:03:57;;;;;;;;;;;11.30;85.60;;;;;;5094050;28;19987;-66
2021/07/25 13:06:25;;;;;;;;;;;11.30;86.20;;;;;;5094398;28;19962;-67
2021/07/25 13:08:53;;;;;;;;;;;11.30;85.30;;;;;;5094082;28;19908;-68
2021/07/25 13:11:20;;;;;;;;;;;11.20;85.40;;;;;;5094754;28;20340;-68
2021/07/25 13:13:48;;;;;;;;;;;11.20;85.10;;;;;;5092754;28;19959;-68
2021/07/25 13:16:18;;;;;;;;;;;11.20;85.70;;;;;;5094196;28;19912;-68
2021/07/25 13:18:47;;;;;;;;;;;11.20;85.70;;;;;;5094139;28;19973;-67
2021/07/25 13:21:14;;;;;;;;;;;11.20;86.60;;;;;;5094466;28;19916;-66
2021/07/25 13:23:41;;;;;;;;;;;11.20;86.30;;;;;;5094123;28;19908;-67
2021/07/25 13:26:08;;;;;;;;;;;11.20;85.60;;;;;;5094122;28;20400;-68
2021/07/25 13:28:35;;;;;;;;;;;11.30;85.90;;;;;;5094047;28;19908;-66
2021/07/25 13:31:03;;;;;;;;;;;11.30;85.90;;;;;;5094060;28;19909;-66
2021/07/25 13:33:32;;;;;;;;;;;11.20;86.10;;;;;;5093745;28;19950;-66
2021/07/25 13:36:00;;;;;;;;;;;11.30;86.30;;;;;;5093861;28;19931;-68
2021/07/25 13:38:27;;;;;;;;;;;11.30;86.30;;;;;;5093834;28;19961;-67
2021/07/25 13:40:54;;;;;;;;;;;11.30;87.60;;;;;;5093640;28;20434;-69
2021/07/25 13:43:21;;;;;;;;;;;11.30;86.50;;;;;;5093498;28;19918;-68
2021/07/25 13:45:51;;;;;;;;;;;11.30;86.80;;;;;;5093636;28;20350;-68
2021/07/25 13:48:18;;;;;;;;;;;11.30;86.80;;;;;;5093791;28;19908;-67
2021/07/25 13:50:46;;;;;;;;;;;11.30;86.00;;;;;;5093886;28;20321;-68
2021/07/25 13:53:14;;;;;;;;;;;11.30;86.10;;;;;;5093621;28;19909;-67
2021/07/25 13:55:41;;;;;;;;;;;11.30;86.30;;;;;;5093202;28;20286;-69
2021/07/25 13:58:08;;;;;;;;;;;11.30;86.50;;;;;;5093397;28;19908;-69
2021/07/25 14:00:35;;;;;;;;;;;11.30;86.60;;;;;;5093361;28;20015;-68
2021/07/25 14:03:03;;;;;;;;;;;11.40;86.90;;;;;;5093345;28;19947;-69
2021/07/25 14:05:36;;;;;;;;;;;11.40;85.60;;;;;;5093271;28;19911;-66
2021/07/25 14:08:04;;;;;;;;;;;11.40;86.40;;;;;;5093241;28;19995;-68
2021/07/25 14:10:31;;;;;;;;;;;11.40;85.70;;;;;;5092969;28;19982;-68
2021/07/25 14:12:57;;;;;;;;;;;11.50;86.40;;;;;;5093126;28;19995;-67
2021/07/25 14:15:24;;;;;;;;;;;11.50;85.70;;;;;;5093226;28;19950;-68
2021/07/25 14:17:54;;;;;;;;;;;11.50;86.40;;;;;;5092867;28;20389;-68
2021/07/25 14:20:21;;;;;;;;;;;11.50;85.20;;;;;;5092998;28;19951;-68
2021/07/25 14:22:48;;;;;;;;;;;11.50;85.80;;;;;;5093113;28;19961;-68
2021/07/25 14:25:15;;;;;;;;;;;11.60;85.30;;;;;;5092994;28;19909;-68
2021/07/25 14:27:42;;;;;;;;;;;11.60;85.70;;;;;;5092726;28;19908;-69
2021/07/25 14:30:09;;;;;;;;;;;11.50;85.70;;;;;;5092950;28;19915;-69